createdAt,value
2017-10-22T00:01:46.109Z,4.70
2017-10-22T00:04:13.536Z,3.73
2017-10-22T00:06:40.953Z,4.73
2017-10-22T00:09:08.379Z,4.43
2017-10-22T00:11:35.797Z,4.70
2017-10-22T00:14:03.228Z,5.30
2017-10-22T00:16:30.661Z,5.20
2017-10-22T00:18:58.081Z,5.20
2017-10-22T00:21:25.525Z,5.40
2017-10-22T00:23:52.928Z,4.47
2017-10-22T00:26:20.351Z,4.80
2017-10-22T00:28:47.777Z,5.03
2017-10-22T00:31:15.193Z,4.60
2017-10-22T00:33:42.617Z,4.57
2017-10-22T00:36:10.047Z,5.50
2017-10-22T00:38:37.461Z,4.90
2017-10-22T00:41:04.897Z,4.40
2017-10-22T00:43:32.314Z,5.67
2017-10-22T00:45:59.729Z,5.13
2017-10-22T00:48:27.157Z,4.20
2017-10-22T00:50:54.581Z,5.10
2017-10-22T00:53:22.008Z,5.40
2017-10-22T00:55:49.431Z,4.93
2017-10-22T00:58:16.854Z,3.90
2017-10-22T01:00:44.280Z,4.80
2017-10-22T01:03:11.702Z,4.50
2017-10-22T01:05:39.121Z,4.17
2017-10-22T01:08:06.557Z,4.17
2017-10-22T01:10:33.969Z,4.37
2017-10-22T01:13:01.382Z,4.50
2017-10-22T01:15:28.818Z,5.70
2017-10-22T01:17:56.231Z,3.77
2017-10-22T01:20:23.652Z,4.10
2017-10-22T01:22:51.077Z,4.63
2017-10-22T01:25:18.489Z,3.93
2017-10-22T01:27:45.902Z,3.80
2017-10-22T01:30:13.333Z,3.40
2017-10-22T01:32:40.750Z,4.47
2017-10-22T01:35:08.170Z,4.50
2017-10-22T01:37:35.598Z,4.30
2017-10-22T01:40:03.013Z,4.23
2017-10-22T01:42:30.424Z,4.17
2017-10-22T01:44:57.849Z,4.27
2017-10-22T01:47:25.265Z,4.33
2017-10-22T01:49:52.688Z,4.67
2017-10-22T01:52:20.110Z,4.30
2017-10-22T01:54:47.539Z,5.20
2017-10-22T01:57:14.957Z,5.30
2017-10-22T01:59:42.384Z,3.90
2017-10-22T02:02:09.801Z,4.83
2017-10-22T02:04:37.216Z,3.97
2017-10-22T02:07:04.653Z,4.50
2017-10-22T02:09:32.076Z,4.37
2017-10-22T02:11:59.489Z,5.70
2017-10-22T02:14:26.926Z,4.20
2017-10-22T02:16:54.349Z,5.37
2017-10-22T02:19:21.774Z,5.30
2017-10-22T02:21:49.205Z,4.60
2017-10-22T02:24:16.629Z,5.00
2017-10-22T02:26:44.049Z,4.83
2017-10-22T02:29:11.472Z,4.40
2017-10-22T02:31:38.881Z,4.40
2017-10-22T02:34:06.292Z,5.33
2017-10-22T02:36:33.732Z,5.53
2017-10-22T02:39:01.153Z,4.80
2017-10-22T02:41:28.569Z,5.10
2017-10-22T02:43:55.997Z,5.10
2017-10-22T02:46:23.413Z,4.37
2017-10-22T02:48:50.868Z,4.10
2017-10-22T02:51:18.291Z,4.47
2017-10-22T02:53:45.710Z,5.60
2017-10-22T02:56:13.137Z,6.27
2017-10-22T02:58:40.553Z,6.40
2017-10-22T03:01:07.985Z,5.93
2017-10-22T03:03:35.400Z,5.97
2017-10-22T03:06:02.825Z,6.17
2017-10-22T03:08:30.257Z,5.77
2017-10-22T03:10:57.676Z,4.97
2017-10-22T03:13:25.118Z,5.30
2017-10-22T03:15:52.536Z,6.60
2017-10-22T03:18:19.952Z,6.17
2017-10-22T03:20:47.388Z,5.60
2017-10-22T03:23:14.801Z,6.30
2017-10-22T03:25:42.233Z,5.60
2017-10-22T03:28:09.660Z,6.77
2017-10-22T03:30:37.077Z,5.10
2017-10-22T03:33:04.509Z,6.23
2017-10-22T03:35:31.925Z,5.10
2017-10-22T03:37:59.361Z,5.67
2017-10-22T03:40:26.780Z,6.10
2017-10-22T03:42:54.206Z,6.50
2017-10-22T03:45:21.663Z,5.00
2017-10-22T03:47:49.096Z,6.03
2017-10-22T03:50:16.525Z,5.00
2017-10-22T03:52:43.941Z,5.77
2017-10-22T03:55:11.374Z,5.63
2017-10-22T03:57:38.793Z,6.40
2017-10-22T04:00:06.233Z,6.17
2017-10-22T04:02:33.650Z,6.27
2017-10-22T04:05:01.066Z,6.17
2017-10-22T04:07:28.492Z,5.80
2017-10-22T04:09:55.917Z,5.97
2017-10-22T04:12:23.353Z,5.77
2017-10-22T04:14:50.774Z,5.90
2017-10-22T04:17:18.187Z,5.60
2017-10-22T04:19:45.617Z,5.43
2017-10-22T04:22:13.033Z,5.60
2017-10-22T04:24:40.468Z,5.27
2017-10-22T04:27:07.884Z,6.37
2017-10-22T04:29:35.305Z,6.20
2017-10-22T04:32:02.741Z,5.33
2017-10-22T04:34:30.161Z,4.83
2017-10-22T04:36:57.599Z,4.50
2017-10-22T04:39:25.013Z,4.70
2017-10-22T04:41:52.434Z,4.67
2017-10-22T04:44:19.868Z,4.63
2017-10-22T04:46:47.285Z,6.60
2017-10-22T04:49:14.721Z,6.27
2017-10-22T04:51:42.142Z,5.97
2017-10-22T04:54:09.569Z,5.13
2017-10-22T04:56:37.002Z,5.17
2017-10-22T04:59:04.423Z,5.40
2017-10-22T05:01:31.857Z,5.97
2017-10-22T05:03:59.273Z,5.17
2017-10-22T05:06:26.688Z,5.00
2017-10-22T05:08:54.129Z,4.97
2017-10-22T05:11:21.540Z,5.00
2017-10-22T05:13:48.981Z,5.87
2017-10-22T05:16:16.401Z,5.10
2017-10-22T05:18:43.812Z,5.70
2017-10-22T05:21:11.244Z,5.23
2017-10-22T05:23:38.657Z,5.37
2017-10-22T05:26:06.089Z,4.67
2017-10-22T05:28:33.516Z,4.73
2017-10-22T05:31:00.929Z,4.90
2017-10-22T05:33:28.361Z,4.50
2017-10-22T05:35:55.785Z,4.97
2017-10-22T05:38:23.213Z,4.97
2017-10-22T05:40:50.639Z,4.53
2017-10-22T05:43:18.048Z,4.37
2017-10-22T05:45:45.472Z,4.23
2017-10-22T05:48:12.893Z,4.93
2017-10-22T05:50:40.329Z,4.70
2017-10-22T05:53:07.745Z,4.40
2017-10-22T05:55:35.183Z,3.93
2017-10-22T05:58:02.589Z,5.13
2017-10-22T06:00:30.018Z,5.57
2017-10-22T06:02:57.459Z,4.17
2017-10-22T06:05:24.864Z,4.73
2017-10-22T06:07:52.284Z,4.87
2017-10-22T06:10:19.699Z,4.47
2017-10-22T06:12:47.112Z,6.63
2017-10-22T06:15:14.545Z,4.83
2017-10-22T06:17:41.957Z,5.77
2017-10-22T06:20:09.377Z,6.10
2017-10-22T06:22:36.799Z,4.83
2017-10-22T06:25:04.213Z,5.13
2017-10-22T06:27:31.640Z,5.13
2017-10-22T06:29:59.060Z,5.50
2017-10-22T06:32:26.477Z,5.33
2017-10-22T06:34:53.933Z,5.00
2017-10-22T06:37:21.344Z,5.90
2017-10-22T06:39:48.777Z,5.30
2017-10-22T06:42:16.184Z,6.10
2017-10-22T06:44:43.601Z,4.93
2017-10-22T06:47:11.030Z,5.00
2017-10-22T06:49:38.445Z,5.23
2017-10-22T06:52:05.873Z,4.60
2017-10-22T06:54:33.293Z,4.90
2017-10-22T06:57:00.712Z,6.50
2017-10-22T06:59:28.146Z,6.77
2017-10-22T07:01:55.565Z,6.53
2017-10-22T07:04:23.005Z,5.90
2017-10-22T07:06:50.427Z,5.77
2017-10-22T07:09:17.850Z,5.37
2017-10-22T07:11:45.273Z,4.70
2017-10-22T07:14:12.684Z,5.50
2017-10-22T07:16:40.120Z,5.80
2017-10-22T07:19:07.542Z,5.33
2017-10-22T07:21:34.953Z,4.33
2017-10-22T07:24:02.389Z,4.87
2017-10-22T07:26:29.793Z,4.53
2017-10-22T07:28:57.223Z,4.97
2017-10-22T07:31:24.640Z,5.87
2017-10-22T07:33:52.925Z,5.20
2017-10-22T07:36:20.346Z,5.03
2017-10-22T07:38:47.766Z,4.77
2017-10-22T07:41:15.201Z,5.23
2017-10-22T07:43:42.621Z,5.47
2017-10-22T07:46:10.042Z,5.00
2017-10-22T07:48:37.472Z,4.60
2017-10-22T07:51:04.897Z,5.13
2017-10-22T07:53:32.320Z,4.53
2017-10-22T07:55:59.745Z,4.53
2017-10-22T07:58:27.161Z,4.47
2017-10-22T08:00:54.590Z,4.93
2017-10-22T08:03:22.004Z,5.20
2017-10-22T08:05:49.448Z,5.30
2017-10-22T08:08:16.863Z,4.10
2017-10-22T08:10:44.272Z,5.20
2017-10-22T08:13:11.709Z,4.30
2017-10-22T08:15:39.124Z,4.27
2017-10-22T08:18:06.559Z,4.20
2017-10-22T08:20:33.977Z,4.50
2017-10-22T08:23:01.396Z,4.73
2017-10-22T08:25:28.825Z,4.97
2017-10-22T08:27:56.245Z,4.80
2017-10-22T08:30:23.683Z,4.57
2017-10-22T08:32:51.105Z,4.60
2017-10-22T08:35:18.521Z,4.27
2017-10-22T08:37:45.950Z,4.40
2017-10-22T08:40:13.373Z,4.90
2017-10-22T08:42:40.810Z,4.00
2017-10-22T08:45:08.224Z,4.10
2017-10-22T08:47:35.641Z,4.00
2017-10-22T08:50:03.060Z,4.50
2017-10-22T08:52:30.481Z,5.23
2017-10-22T08:54:57.912Z,4.10
2017-10-22T08:57:25.325Z,4.30
2017-10-22T08:59:52.761Z,4.47
2017-10-22T09:02:20.197Z,5.33
2017-10-22T09:04:47.613Z,4.33
2017-10-22T09:07:15.049Z,4.23
2017-10-22T09:09:42.469Z,3.90
2017-10-22T09:12:09.876Z,3.97
2017-10-22T09:14:37.304Z,4.40
2017-10-22T09:17:04.724Z,4.10
2017-10-22T09:19:32.157Z,4.10
2017-10-22T09:21:59.579Z,4.03
2017-10-22T09:24:26.988Z,4.10
2017-10-22T09:26:54.421Z,4.90
2017-10-22T09:29:21.976Z,4.10
2017-10-22T09:31:49.601Z,4.30
2017-10-22T09:34:17.069Z,4.37
2017-10-22T09:36:44.504Z,5.13
2017-10-22T09:39:11.933Z,4.30
2017-10-22T09:41:39.516Z,4.80
2017-10-22T09:44:06.989Z,4.60
2017-10-22T09:46:34.696Z,4.60
2017-10-22T09:49:02.117Z,4.20
2017-10-22T09:51:29.544Z,4.80
2017-10-22T09:53:56.967Z,4.43
2017-10-22T09:56:24.449Z,3.83
2017-10-22T09:58:51.865Z,4.43
2017-10-22T10:01:19.292Z,4.40
2017-10-22T10:03:47.654Z,5.23
2017-10-22T10:06:15.084Z,4.50
2017-10-22T10:08:42.525Z,3.83
2017-10-22T10:11:09.940Z,3.60
2017-10-22T10:13:37.369Z,3.90
2017-10-22T10:16:04.808Z,3.97
2017-10-22T10:18:32.231Z,4.17
2017-10-22T10:20:59.657Z,3.90
2017-10-22T10:23:27.105Z,3.83
2017-10-22T10:25:54.544Z,5.00
2017-10-22T10:28:21.953Z,3.67
2017-10-22T10:30:49.384Z,4.20
2017-10-22T10:33:16.813Z,4.10
2017-10-22T10:35:44.228Z,4.43
2017-10-22T10:38:11.669Z,4.10
2017-10-22T10:40:39.084Z,4.37
2017-10-22T10:43:06.500Z,4.77
2017-10-22T10:45:33.957Z,3.77
2017-10-22T10:48:01.378Z,4.33
2017-10-22T10:50:28.827Z,3.83
2017-10-22T10:52:56.272Z,5.30
2017-10-22T10:55:23.701Z,3.70
2017-10-22T10:57:51.133Z,3.60
2017-10-22T11:00:18.557Z,5.03
2017-10-22T11:02:46.022Z,4.03
2017-10-22T11:05:13.446Z,3.70
2017-10-22T11:07:40.878Z,3.30
2017-10-22T11:10:08.304Z,3.63
2017-10-22T11:12:35.729Z,4.27
2017-10-22T11:15:03.165Z,4.03
2017-10-22T11:17:30.589Z,4.10
2017-10-22T11:19:58.079Z,4.30
2017-10-22T11:22:25.500Z,3.90
2017-10-22T11:24:52.923Z,4.40
2017-10-22T11:27:20.364Z,4.50
2017-10-22T11:29:47.777Z,4.20
2017-10-22T11:32:15.221Z,3.60
2017-10-22T11:34:42.642Z,4.23
2017-10-22T11:37:10.070Z,4.40
2017-10-22T11:39:37.534Z,4.50
2017-10-22T11:42:05.689Z,4.17
2017-10-22T11:44:33.105Z,4.97
2017-10-22T11:47:00.573Z,4.67
2017-10-22T11:49:28.002Z,4.20
2017-10-22T11:51:55.455Z,3.80
2017-10-22T11:54:22.865Z,3.30
2017-10-22T11:56:50.277Z,4.33
2017-10-22T11:59:17.713Z,5.17
2017-10-22T12:01:45.125Z,4.33
2017-10-22T12:04:12.575Z,4.17
2017-10-22T12:06:40.047Z,4.40
2017-10-22T12:09:07.483Z,3.63
2017-10-22T12:11:35.355Z,3.80
2017-10-22T12:14:02.773Z,4.20
2017-10-22T12:16:30.205Z,4.00
2017-10-22T12:18:57.625Z,4.13
2017-10-22T12:21:25.070Z,4.43
2017-10-22T12:23:52.496Z,3.80
2017-10-22T12:26:19.912Z,4.40
2017-10-22T12:28:47.371Z,3.73
2017-10-22T12:31:14.802Z,3.80
2017-10-22T12:33:42.216Z,4.23
2017-10-22T12:36:09.646Z,4.60
2017-10-22T12:38:37.056Z,3.47
2017-10-22T12:41:04.520Z,4.87
2017-10-22T12:43:31.937Z,5.00
2017-10-22T12:45:59.347Z,3.97
2017-10-22T12:48:26.784Z,4.70
2017-10-22T12:50:54.200Z,3.80
2017-10-22T12:53:21.637Z,4.43
2017-10-22T12:55:49.286Z,4.30
2017-10-22T12:58:16.697Z,4.53
2017-10-22T13:00:44.388Z,5.10
2017-10-22T13:03:11.927Z,4.17
2017-10-22T13:05:39.356Z,4.23
2017-10-22T13:08:06.775Z,3.90
2017-10-22T13:10:34.192Z,4.90
2017-10-22T13:13:01.631Z,4.33
2017-10-22T13:15:29.060Z,4.80
2017-10-22T13:17:56.498Z,4.47
2017-10-22T13:20:24.033Z,5.13
2017-10-22T13:22:51.663Z,4.07
2017-10-22T13:25:19.096Z,4.47
2017-10-22T13:27:46.516Z,4.47
2017-10-22T13:30:13.945Z,3.80
2017-10-22T13:32:41.360Z,4.70
2017-10-22T13:35:08.797Z,4.03
2017-10-22T13:37:36.210Z,4.90
2017-10-22T13:40:03.620Z,4.13
2017-10-22T13:42:31.050Z,4.23
2017-10-22T13:44:58.468Z,3.70
2017-10-22T13:47:25.901Z,4.23
2017-10-22T13:49:53.317Z,4.00
2017-10-22T13:52:20.727Z,4.10
2017-10-22T13:54:48.162Z,4.17
2017-10-22T13:57:15.588Z,3.60
2017-10-22T13:59:43.037Z,3.70
2017-10-22T14:02:10.448Z,3.30
2017-10-22T14:04:37.885Z,4.17
2017-10-22T14:07:05.304Z,3.60
2017-10-22T14:09:32.732Z,3.20
2017-10-22T14:12:00.161Z,3.97
2017-10-22T14:14:27.581Z,3.87
2017-10-22T14:16:55.023Z,3.40
2017-10-22T14:19:22.440Z,3.43
2017-10-22T14:21:49.868Z,3.13
2017-10-22T14:24:17.285Z,3.57
2017-10-22T14:26:44.708Z,3.53
2017-10-22T14:29:12.134Z,3.40
2017-10-22T14:31:39.556Z,3.70
2017-10-22T14:34:06.973Z,3.80
2017-10-22T14:36:34.397Z,4.00
2017-10-22T14:39:01.829Z,3.90
2017-10-22T14:41:29.247Z,3.60
2017-10-22T14:43:56.672Z,3.77
2017-10-22T14:46:24.088Z,3.43
2017-10-22T14:48:51.513Z,3.67
2017-10-22T14:51:18.932Z,3.93
2017-10-22T14:53:46.401Z,3.23
2017-10-22T14:56:13.816Z,3.53
2017-10-22T14:58:41.232Z,3.50
2017-10-22T15:01:08.651Z,3.30
2017-10-22T15:03:36.064Z,3.40
2017-10-22T15:06:03.502Z,3.30
2017-10-22T15:08:30.909Z,3.50
2017-10-22T15:10:58.337Z,3.23
2017-10-22T15:13:25.765Z,3.83
2017-10-22T15:15:53.192Z,4.57
2017-10-22T15:18:20.641Z,4.17
2017-10-22T15:20:48.084Z,4.67
2017-10-22T15:23:15.512Z,4.10
2017-10-22T15:25:42.925Z,4.50
2017-10-22T15:28:10.353Z,3.80
2017-10-22T15:30:37.780Z,3.63
2017-10-22T15:33:05.217Z,4.20
2017-10-22T15:35:32.640Z,3.70
2017-10-22T15:38:00.061Z,3.80
2017-10-22T15:40:27.482Z,3.97
2017-10-22T15:42:54.905Z,4.27
2017-10-22T15:45:22.337Z,4.33
2017-10-22T15:47:49.756Z,4.10
2017-10-22T15:50:17.161Z,4.90
2017-10-22T15:52:44.597Z,4.00
2017-10-22T15:55:12.017Z,4.43
2017-10-22T15:57:39.444Z,4.20
2017-10-22T16:00:06.869Z,5.20
2017-10-22T16:02:34.301Z,4.30
2017-10-22T16:05:01.892Z,4.57
2017-10-22T16:07:29.437Z,4.03
2017-10-22T16:09:56.998Z,4.77
2017-10-22T16:12:24.419Z,4.40
2017-10-22T16:14:52.122Z,4.73
2017-10-22T16:17:20.117Z,4.40
2017-10-22T16:19:47.597Z,4.97
2017-10-22T16:22:15.220Z,5.20
2017-10-22T16:24:42.641Z,4.50
2017-10-22T16:27:10.369Z,3.97
2017-10-22T16:29:37.972Z,4.37
2017-10-22T16:32:05.397Z,4.00
2017-10-22T16:34:32.831Z,3.87
2017-10-22T16:37:00.252Z,3.70
2017-10-22T16:39:27.677Z,3.97
2017-10-22T16:41:55.094Z,4.33
2017-10-22T16:44:22.525Z,4.43
2017-10-22T16:46:49.952Z,3.97
2017-10-22T16:49:18.408Z,3.80
2017-10-22T16:51:45.825Z,3.70
2017-10-22T16:54:13.237Z,3.63
2017-10-22T16:56:40.682Z,3.80
2017-10-22T16:59:08.091Z,4.43
2017-10-22T17:01:35.536Z,4.43
2017-10-22T17:04:04.133Z,3.80
2017-10-22T17:06:31.624Z,3.80
2017-10-22T17:09:00.182Z,4.20
2017-10-22T17:11:27.723Z,3.83
2017-10-22T17:13:55.263Z,3.67
2017-10-22T17:16:22.689Z,4.60
2017-10-22T17:18:50.351Z,3.90
2017-10-22T17:21:18.058Z,4.20
2017-10-22T17:23:45.639Z,4.30
2017-10-22T17:26:18.913Z,4.60
2017-10-22T17:28:46.573Z,4.00
2017-10-22T17:31:14.141Z,4.93
2017-10-22T17:33:41.654Z,5.10
2017-10-22T17:36:09.179Z,5.50
2017-10-22T17:38:36.999Z,4.63
2017-10-22T17:41:04.961Z,5.30
2017-10-22T17:43:33.340Z,4.83
2017-10-22T17:46:01.161Z,5.43
2017-10-22T17:48:28.961Z,4.80
2017-10-22T17:50:56.759Z,4.90
2017-10-22T17:53:24.555Z,4.40
2017-10-22T17:55:52.710Z,5.50
2017-10-22T17:58:20.590Z,4.93
2017-10-22T18:00:48.747Z,4.70
2017-10-22T18:03:17.130Z,4.83
2017-10-22T18:05:45.331Z,4.50
2017-10-22T18:08:13.452Z,5.03
2017-10-22T18:10:44.773Z,5.33
2017-10-22T18:13:13.037Z,4.60
2017-10-22T18:15:41.329Z,5.20
2017-10-22T18:18:09.426Z,5.17
2017-10-22T18:20:39.889Z,5.17
2017-10-22T18:23:07.908Z,4.67
2017-10-22T18:25:36.056Z,4.83
2017-10-22T18:28:04.352Z,5.00
2017-10-22T18:30:32.358Z,4.93
2017-10-22T18:33:00.339Z,5.40
2017-10-22T18:35:28.427Z,8.87
2017-10-22T18:37:56.782Z,5.77
2017-10-22T18:40:25.274Z,5.03
2017-10-22T18:42:57.426Z,5.50
2017-10-22T18:45:25.784Z,5.33
2017-10-22T18:47:54.327Z,4.70
2017-10-22T18:50:23.200Z,4.90
2017-10-22T18:52:52.399Z,5.67
2017-10-22T18:55:21.158Z,4.47
2017-10-22T18:57:49.695Z,5.63
2017-10-22T19:00:18.044Z,5.40
2017-10-22T19:02:46.374Z,6.43
2017-10-22T19:05:14.801Z,4.70
2017-10-22T19:07:43.361Z,5.30
2017-10-22T19:10:11.770Z,4.90
2017-10-22T19:12:40.116Z,5.20
2017-10-22T19:15:08.472Z,5.10
2017-10-22T19:17:37.023Z,5.77
2017-10-22T19:20:05.388Z,4.50
2017-10-22T19:22:33.769Z,5.40
2017-10-22T19:25:02.128Z,5.47
2017-10-22T19:27:30.543Z,4.67
2017-10-22T19:29:58.963Z,6.57
2017-10-22T19:32:27.569Z,5.37
2017-10-22T19:34:57.004Z,5.30
2017-10-22T19:37:25.410Z,5.60
2017-10-22T19:39:53.808Z,5.27
2017-10-22T19:42:22.456Z,5.57
2017-10-22T19:44:51.063Z,6.57
2017-10-22T19:47:19.511Z,4.83
2017-10-22T19:49:48.152Z,5.10
2017-10-22T19:52:16.460Z,4.40
2017-10-22T19:54:45.654Z,5.70
2017-10-22T19:57:14.002Z,4.90
2017-10-22T19:59:42.555Z,5.43
2017-10-22T20:02:10.891Z,4.77
2017-10-22T20:04:39.288Z,6.33
2017-10-22T20:07:07.673Z,5.10
2017-10-22T20:09:36.031Z,4.67
2017-10-22T20:12:04.242Z,5.60
2017-10-22T20:14:32.478Z,4.80
2017-10-22T20:17:00.327Z,5.27
2017-10-22T20:19:27.853Z,5.30
2017-10-22T20:21:55.398Z,5.20
2017-10-22T20:24:22.871Z,5.90
2017-10-22T20:26:50.324Z,5.40
2017-10-22T20:29:17.795Z,6.43
2017-10-22T20:31:45.237Z,6.50
2017-10-22T20:34:12.661Z,6.00
2017-10-22T20:36:40.091Z,5.47
2017-10-22T20:39:07.508Z,5.30
2017-10-22T20:41:34.944Z,5.70
2017-10-22T20:44:02.381Z,5.10
2017-10-22T20:46:29.808Z,5.30
2017-10-22T20:48:57.233Z,4.77
2017-10-22T20:51:24.649Z,4.43
2017-10-22T20:53:52.081Z,5.30
2017-10-22T20:56:19.505Z,4.73
2017-10-22T20:58:46.917Z,4.63
2017-10-22T21:01:14.345Z,5.17
2017-10-22T21:03:41.760Z,4.67
2017-10-22T21:06:09.199Z,4.70
2017-10-22T21:08:36.629Z,4.80
2017-10-22T21:11:04.505Z,5.63
2017-10-22T21:13:31.952Z,5.60
2017-10-22T21:15:59.416Z,4.87
2017-10-22T21:18:26.843Z,5.13
2017-10-22T21:20:54.269Z,5.27
2017-10-22T21:23:21.698Z,5.10
2017-10-22T21:25:49.128Z,5.43
2017-10-22T21:28:16.560Z,4.93
2017-10-22T21:30:43.993Z,6.00
2017-10-22T21:33:11.420Z,5.30
2017-10-22T21:35:38.848Z,5.70
2017-10-22T21:38:06.269Z,5.10
2017-10-22T21:40:33.706Z,6.00
2017-10-22T21:43:01.122Z,6.00
2017-10-22T21:45:28.617Z,5.80
2017-10-22T21:47:56.045Z,5.43
2017-10-22T21:50:23.465Z,4.53
2017-10-22T21:52:50.896Z,4.90
2017-10-22T21:55:18.313Z,5.00
2017-10-22T21:57:45.729Z,5.80
2017-10-22T22:00:13.157Z,5.37
2017-10-22T22:02:40.582Z,5.40
2017-10-22T22:05:08.024Z,6.07
2017-10-22T22:07:35.456Z,5.13
2017-10-22T22:10:02.881Z,4.53
2017-10-22T22:12:30.330Z,5.70
2017-10-22T22:14:57.787Z,5.40
2017-10-22T22:17:25.213Z,4.80
2017-10-22T22:19:52.625Z,4.70
2017-10-22T22:22:21.216Z,4.60
2017-10-22T22:24:48.617Z,6.00
2017-10-22T22:27:16.419Z,4.70
2017-10-22T22:29:43.834Z,5.05
2017-10-22T22:32:15.832Z,5.40
2017-10-22T22:34:43.544Z,5.70
2017-10-22T22:37:10.973Z,5.70
2017-10-22T22:39:38.418Z,5.00
2017-10-22T22:42:05.830Z,5.27
2017-10-22T22:44:33.248Z,5.40
2017-10-22T22:47:00.677Z,5.63
2017-10-22T22:49:28.113Z,4.90
2017-10-22T22:52:22.855Z,4.43
2017-10-22T22:54:50.301Z,5.90
2017-10-22T22:57:17.796Z,5.60
2017-10-22T22:59:45.225Z,4.83
2017-10-22T23:02:12.636Z,4.60
2017-10-22T23:04:40.062Z,4.50
2017-10-22T23:07:07.493Z,4.93
2017-10-22T23:09:34.949Z,5.73
2017-10-22T23:12:02.373Z,4.73
2017-10-22T23:14:29.852Z,5.27
2017-10-22T23:16:57.272Z,4.90
2017-10-22T23:19:24.689Z,5.33
2017-10-22T23:21:52.112Z,5.87
2017-10-22T23:24:19.520Z,5.17
2017-10-22T23:26:46.932Z,5.10
2017-10-22T23:29:14.369Z,5.83
2017-10-22T23:31:41.776Z,4.83
2017-10-22T23:34:09.209Z,5.40
2017-10-22T23:36:36.625Z,5.10
2017-10-22T23:39:04.057Z,5.80
2017-10-22T23:41:31.489Z,5.40
2017-10-22T23:43:58.909Z,5.30
2017-10-22T23:46:26.337Z,5.57
2017-10-22T23:48:53.760Z,5.37
2017-10-22T23:51:21.208Z,5.53
2017-10-22T23:53:49.080Z,5.07
2017-10-22T23:56:16.488Z,5.53
2017-10-22T23:58:44.824Z,5.03
